Hauptseite
METAR-TAF:

METAR-TAF

Flughäfen :

Alice Springs, Australien

Flughafen Alice Springs

Breite: 23-48S, Länge: 133-53E, Höhe: 545 m

Beobachtung

Neuester Wetterbericht von vor 20 Minuten, um 03:00 UTC
Wind 7 kt aus Ost/Südost, variierte zwischen Nordost und Südost
Temperatur 20°C
Luftfeuchtigkeit 26%
Luftdruck 1019 hPa
Sichtweite 10 km oder mehr

METAR: YBAS 300300Z AUTO 11007KT 050V140 9999 // NCD 20/00 Q1019 RF00.0/000.0

Zeit: 12:50 (03:20 UTC)

Prognose

Neuester Wetterbericht von vor 4 Stunden und 0 Minuten, um 23:20 UTC
Gültige Prognose vom 30 um 00 UTC bis 30 um 24 UTC
Wind 8 kt aus Ost/Südost
Sichtweite 10 km oder mehr
keine Wolken unter 1500 m und keine Kumulonimbus oder Gewitterwolken
Ab 30 um 1500 UTC
Wind 5 kt aus West/Nordwest
Sichtweite 10 km oder mehr
keine Wolken unter 1500 m und keine Kumulonimbus oder Gewitterwolken

TAF: YBAS 292320Z 3000/3024 12008KT CAVOK FM301500 30005KT CAVOK

Wetterbeobachtungen und Prognosen von mehr als 4000 Flughäfen (METAR und TAF Bericht).

Die verfügbaren Stationen werden durch gelbe und rote Markierungen auf der Karte dargestellt.

Führen Sie die Maus auf sie, um den Namen der Station zu sehen.

Darauf klicken, um die Beobachtung von Wetterbeobachtungen und Prognosen zu sehen.

Um die Karte zu ändern : klicken Sie auf den grünen Tasten mit einem schwarzen Kreuz Zum Vergrößern, auf den grünen Button mit einem Gedankenstrich zu verkleinern, oder auf die grünen Pfeile für benachbarte Karten.


METAR-TAF: